sensor_id;sensor_type;location;lat;lon;timestamp;pressure;altitude;pressure_sealevel;temperature;humidity
66762;BME280;53672;48.176;16.338;2023-02-19T00:02:18;99276.91;;;12.40;64.68
66762;BME280;53672;48.176;16.338;2023-02-19T00:07:20;99281.97;;;12.47;64.46
66762;BME280;53672;48.176;16.338;2023-02-19T00:12:20;99278.72;;;12.50;64.42
66762;BME280;53672;48.176;16.338;2023-02-19T00:17:21;99281.69;;;12.48;64.49
66762;BME280;53672;48.176;16.338;2023-02-19T00:22:23;99280.75;;;12.58;63.95
66762;BME280;53672;48.176;16.338;2023-02-19T00:27:24;99289.63;;;12.63;63.78
66762;BME280;53672;48.176;16.338;2023-02-19T00:32:24;99290.47;;;12.59;64.06
66762;BME280;53672;48.176;16.338;2023-02-19T00:37:26;99296.75;;;12.54;64.48
66762;BME280;53672;48.176;16.338;2023-02-19T00:42:27;99309.69;;;12.57;64.43
66762;BME280;53672;48.176;16.338;2023-02-19T00:47:27;99304.59;;;12.56;64.52
66762;BME280;53672;48.176;16.338;2023-02-19T00:52:30;99297.56;;;12.55;64.82
66762;BME280;53672;48.176;16.338;2023-02-19T00:57:31;99298.94;;;12.52;65.04
66762;BME280;53672;48.176;16.338;2023-02-19T01:02:31;99301.94;;;12.51;65.43
66762;BME280;53672;48.176;16.338;2023-02-19T01:07:35;99303.91;;;12.45;65.81
66762;BME280;53672;48.176;16.338;2023-02-19T01:12:35;99304.63;;;12.51;65.68
66762;BME280;53672;48.176;16.338;2023-02-19T01:17:36;99300.72;;;12.38;66.60
66762;BME280;53672;48.176;16.338;2023-02-19T01:22:38;99287.78;;;12.35;66.77
66762;BME280;53672;48.176;16.338;2023-02-19T01:27:38;99282.72;;;12.29;67.15
66762;BME280;53672;48.176;16.338;2023-02-19T01:32:39;99290.53;;;12.30;67.75
66762;BME280;53672;48.176;16.338;2023-02-19T01:37:41;99279.22;;;12.28;68.18
66762;BME280;53672;48.176;16.338;2023-02-19T01:42:41;99272.78;;;12.24;68.84
66762;BME280;53672;48.176;16.338;2023-02-19T01:47:42;99269.38;;;12.13;69.46
66762;BME280;53672;48.176;16.338;2023-02-19T01:52:44;99264.66;;;12.00;70.14
66762;BME280;53672;48.176;16.338;2023-02-19T01:57:47;99257.03;;;12.07;70.00
66762;BME280;53672;48.176;16.338;2023-02-19T02:02:51;99255.59;;;11.91;70.86
66762;BME280;53672;48.176;16.338;2023-02-19T02:07:53;99248.00;;;11.93;71.20
66762;BME280;53672;48.176;16.338;2023-02-19T02:12:56;99243.41;;;11.94;71.34
66762;BME280;53672;48.176;16.338;2023-02-19T02:18:01;99228.69;;;11.81;71.79
66762;BME280;53672;48.176;16.338;2023-02-19T02:23:15;99234.47;;;11.64;72.40
66762;BME280;53672;48.176;16.338;2023-02-19T02:28:35;99232.53;;;11.70;72.84
66762;BME280;53672;48.176;16.338;2023-02-19T02:33:42;99236.88;;;11.66;73.09
66762;BME280;53672;48.176;16.338;2023-02-19T02:38:45;99235.84;;;11.62;74.12
66762;BME280;53672;48.176;16.338;2023-02-19T02:43:47;99228.81;;;11.61;74.64
66762;BME280;53672;48.176;16.338;2023-02-19T02:48:52;99229.69;;;11.56;76.25
66762;BME280;53672;48.176;16.338;2023-02-19T02:53:57;99217.88;;;11.47;79.65
66762;BME280;53672;48.176;16.338;2023-02-19T02:59:03;99218.78;;;11.38;81.55
66762;BME280;53672;48.176;16.338;2023-02-19T03:04:09;99217.63;;;11.15;83.26
66762;BME280;53672;48.176;16.338;2023-02-19T03:09:14;99222.03;;;11.01;84.68
66762;BME280;53672;48.176;16.338;2023-02-19T03:14:21;99222.09;;;10.96;84.68
66762;BME280;53672;48.176;16.338;2023-02-19T03:19:26;99201.38;;;10.86;85.30
66762;BME280;53672;48.176;16.338;2023-02-19T03:24:30;99203.00;;;10.87;85.43
66762;BME280;53672;48.176;16.338;2023-02-19T03:29:34;99211.66;;;10.84;85.74
66762;BME280;53672;48.176;16.338;2023-02-19T03:34:41;99207.09;;;10.80;88.04
66762;BME280;53672;48.176;16.338;2023-02-19T03:39:43;99205.25;;;10.75;87.93
66762;BME280;53672;48.176;16.338;2023-02-19T03:44:47;99209.28;;;10.73;88.21
66762;BME280;53672;48.176;16.338;2023-02-19T03:49:57;99215.00;;;10.66;88.31
66762;BME280;53672;48.176;16.338;2023-02-19T03:55:03;99200.38;;;10.72;87.80
66762;BME280;53672;48.176;16.338;2023-02-19T04:00:11;99200.63;;;10.76;86.42
66762;BME280;53672;48.176;16.338;2023-02-19T04:05:18;99193.94;;;10.73;86.60
66762;BME280;53672;48.176;16.338;2023-02-19T04:10:21;99198.25;;;10.74;86.43
66762;BME280;53672;48.176;16.338;2023-02-19T04:15:28;99212.22;;;10.76;86.64
66762;BME280;53672;48.176;16.338;2023-02-19T04:20:36;99201.69;;;10.80;86.23
66762;BME280;53672;48.176;16.338;2023-02-19T04:25:40;99208.97;;;10.79;85.73
66762;BME280;53672;48.176;16.338;2023-02-19T04:30:43;99187.94;;;10.81;85.68
66762;BME280;53672;48.176;16.338;2023-02-19T04:35:45;99193.28;;;10.86;85.43
66762;BME280;53672;48.176;16.338;2023-02-19T04:40:45;99184.38;;;10.86;85.52
66762;BME280;53672;48.176;16.338;2023-02-19T04:45:46;99189.25;;;10.89;85.56
66762;BME280;53672;48.176;16.338;2023-02-19T04:50:47;99171.22;;;10.84;85.13
66762;BME280;53672;48.176;16.338;2023-02-19T04:55:48;99173.91;;;10.84;85.05
66762;BME280;53672;48.176;16.338;2023-02-19T05:00:51;99176.78;;;10.93;86.02
66762;BME280;53672;48.176;16.338;2023-02-19T05:05:53;99162.03;;;10.85;87.62
66762;BME280;53672;48.176;16.338;2023-02-19T05:10:56;99156.72;;;10.75;88.23
66762;BME280;53672;48.176;16.338;2023-02-19T05:15:58;99154.31;;;10.68;89.88
66762;BME280;53672;48.176;16.338;2023-02-19T05:21:01;99148.09;;;10.73;89.24
66762;BME280;53672;48.176;16.338;2023-02-19T05:26:04;99145.41;;;10.73;88.80
66762;BME280;53672;48.176;16.338;2023-02-19T05:31:06;99129.06;;;10.59;91.23
66762;BME280;53672;48.176;16.338;2023-02-19T05:36:11;99117.22;;;10.55;90.86
66762;BME280;53672;48.176;16.338;2023-02-19T05:41:13;99119.19;;;10.45;92.23
66762;BME280;53672;48.176;16.338;2023-02-19T05:46:16;99108.97;;;10.42;91.48
66762;BME280;53672;48.176;16.338;2023-02-19T05:51:20;99092.53;;;10.43;91.17
66762;BME280;53672;48.176;16.338;2023-02-19T05:56:26;99092.53;;;10.43;90.46
66762;BME280;53672;48.176;16.338;2023-02-19T06:01:29;99091.72;;;10.43;90.79
66762;BME280;53672;48.176;16.338;2023-02-19T06:06:31;99093.91;;;10.36;91.88
66762;BME280;53672;48.176;16.338;2023-02-19T06:11:32;99083.88;;;10.46;89.28
66762;BME280;53672;48.176;16.338;2023-02-19T06:16:33;99084.63;;;10.52;88.30
66762;BME280;53672;48.176;16.338;2023-02-19T06:21:35;99092.47;;;10.48;87.79
66762;BME280;53672;48.176;16.338;2023-02-19T06:26:35;99097.50;;;10.65;85.97
66762;BME280;53672;48.176;16.338;2023-02-19T06:31:36;99099.06;;;10.71;85.46
66762;BME280;53672;48.176;16.338;2023-02-19T06:36:37;99097.66;;;10.79;84.61
66762;BME280;53672;48.176;16.338;2023-02-19T06:41:38;99098.66;;;10.88;83.53
66762;BME280;53672;48.176;16.338;2023-02-19T06:46:38;99098.81;;;11.01;81.96
66762;BME280;53672;48.176;16.338;2023-02-19T06:51:40;99104.91;;;11.12;80.86
66762;BME280;53672;48.176;16.338;2023-02-19T06:56:41;99096.25;;;11.15;80.36
66762;BME280;53672;48.176;16.338;2023-02-19T07:01:42;99095.91;;;11.22;79.91
66762;BME280;53672;48.176;16.338;2023-02-19T07:06:44;99107.41;;;11.32;78.92
66762;BME280;53672;48.176;16.338;2023-02-19T07:11:45;99091.44;;;11.36;78.32
66762;BME280;53672;48.176;16.338;2023-02-19T07:16:46;99095.22;;;11.35;77.96
66762;BME280;53672;48.176;16.338;2023-02-19T07:21:47;99110.22;;;11.46;77.43
66762;BME280;53672;48.176;16.338;2023-02-19T07:26:48;99101.78;;;11.52;76.79
66762;BME280;53672;48.176;16.338;2023-02-19T07:31:48;99080.06;;;11.39;76.58
66762;BME280;53672;48.176;16.338;2023-02-19T07:36:50;99092.66;;;11.48;76.68
66762;BME280;53672;48.176;16.338;2023-02-19T07:41:51;99112.34;;;11.49;76.59
66762;BME280;53672;48.176;16.338;2023-02-19T07:46:51;99100.81;;;11.67;75.74
66762;BME280;53672;48.176;16.338;2023-02-19T07:51:53;99088.78;;;11.54;76.11
66762;BME280;53672;48.176;16.338;2023-02-19T07:56:54;99094.00;;;11.75;75.46
66762;BME280;53672;48.176;16.338;2023-02-19T08:01:55;99081.13;;;11.90;74.76
66762;BME280;53672;48.176;16.338;2023-02-19T08:06:56;99083.72;;;11.95;74.67
66762;BME280;53672;48.176;16.338;2023-02-19T08:11:57;99093.84;;;12.08;73.85
66762;BME280;53672;48.176;16.338;2023-02-19T08:16:57;99117.97;;;12.00;74.10
66762;BME280;53672;48.176;16.338;2023-02-19T08:21:59;99127.03;;;11.90;75.20
66762;BME280;53672;48.176;16.338;2023-02-19T08:27:00;99120.47;;;11.96;76.57
66762;BME280;53672;48.176;16.338;2023-02-19T08:32:00;99119.69;;;12.33;73.61
66762;BME280;53672;48.176;16.338;2023-02-19T08:37:02;99115.16;;;12.47;72.64
66762;BME280;53672;48.176;16.338;2023-02-19T08:42:03;99131.50;;;12.93;70.67
66762;BME280;53672;48.176;16.338;2023-02-19T08:47:04;99140.28;;;13.50;68.36
66762;BME280;53672;48.176;16.338;2023-02-19T08:52:05;99122.25;;;15.38;61.53
66762;BME280;53672;48.176;16.338;2023-02-19T08:57:06;99120.97;;;17.35;52.81
66762;BME280;53672;48.176;16.338;2023-02-19T09:02:07;99133.34;;;19.65;46.00
66762;BME280;53672;48.176;16.338;2023-02-19T09:07:11;99150.00;;;21.24;41.19
66762;BME280;53672;48.176;16.338;2023-02-19T09:12:11;99141.13;;;22.72;38.13
66762;BME280;53672;48.176;16.338;2023-02-19T09:17:12;99146.88;;;22.16;39.89
66762;BME280;53672;48.176;16.338;2023-02-19T09:22:14;99157.47;;;19.51;45.96
66762;BME280;53672;48.176;16.338;2023-02-19T09:27:15;99136.31;;;19.39;45.46
66762;BME280;53672;48.176;16.338;2023-02-19T09:32:15;99122.06;;;20.15;44.20
66762;BME280;53672;48.176;16.338;2023-02-19T09:37:17;99121.97;;;23.37;36.79
66762;BME280;53672;48.176;16.338;2023-02-19T09:42:21;99118.75;;;25.89;31.72
66762;BME280;53672;48.176;16.338;2023-02-19T09:47:24;99120.41;;;27.52;29.07
66762;BME280;53672;48.176;16.338;2023-02-19T09:52:31;99117.69;;;28.19;26.94
66762;BME280;53672;48.176;16.338;2023-02-19T09:57:35;99103.84;;;29.31;26.16
66762;BME280;53672;48.176;16.338;2023-02-19T10:02:36;99087.63;;;29.77;23.95
66762;BME280;53672;48.176;16.338;2023-02-19T10:12:45;99122.00;;;30.79;22.99
66762;BME280;53672;48.176;16.338;2023-02-19T10:17:46;99112.00;;;33.41;19.63
66762;BME280;53672;48.176;16.338;2023-02-19T10:22:48;99102.75;;;33.08;19.68
66762;BME280;53672;48.176;16.338;2023-02-19T10:27:48;99111.19;;;33.24;19.40
66762;BME280;53672;48.176;16.338;2023-02-19T10:33:01;99115.38;;;33.68;18.09
66762;BME280;53672;48.176;16.338;2023-02-19T10:38:04;99106.28;;;34.57;17.68
66762;BME280;53672;48.176;16.338;2023-02-19T10:43:05;99122.75;;;32.87;19.13
66762;BME280;53672;48.176;16.338;2023-02-19T10:48:20;99122.72;;;33.78;18.69
66762;BME280;53672;48.176;16.338;2023-02-19T10:53:39;99125.56;;;36.14;15.54
66762;BME280;53672;48.176;16.338;2023-02-19T10:58:40;99126.03;;;34.95;16.20
66762;BME280;53672;48.176;16.338;2023-02-19T11:03:41;99099.97;;;33.08;18.83
66762;BME280;53672;48.176;16.338;2023-02-19T11:08:49;99120.75;;;35.14;16.12
66762;BME280;53672;48.176;16.338;2023-02-19T11:13:51;99117.66;;;34.67;17.27
66762;BME280;53672;48.176;16.338;2023-02-19T11:18:55;99113.63;;;34.68;17.20
66762;BME280;53672;48.176;16.338;2023-02-19T11:23:57;99115.88;;;34.44;16.69
66762;BME280;53672;48.176;16.338;2023-02-19T11:29:00;99109.44;;;32.94;18.44
66762;BME280;53672;48.176;16.338;2023-02-19T11:34:21;99095.44;;;31.08;20.08
66762;BME280;53672;48.176;16.338;2023-02-19T11:39:26;99108.97;;;27.50;24.78
66762;BME280;53672;48.176;16.338;2023-02-19T11:44:36;99109.44;;;24.07;30.11
66762;BME280;53672;48.176;16.338;2023-02-19T11:49:47;99096.53;;;21.93;33.33
66762;BME280;53672;48.176;16.338;2023-02-19T11:54:54;99103.91;;;20.10;36.50
66762;BME280;53672;48.176;16.338;2023-02-19T12:00:17;99095.22;;;18.70;39.19
66762;BME280;53672;48.176;16.338;2023-02-19T12:05:28;99123.28;;;16.98;46.39
66762;BME280;53672;48.176;16.338;2023-02-19T12:10:38;99122.75;;;15.40;55.23
66762;BME280;53672;48.176;16.338;2023-02-19T12:15:56;99122.25;;;14.49;58.89
66762;BME280;53672;48.176;16.338;2023-02-19T12:21:10;99125.13;;;14.17;59.24
66762;BME280;53672;48.176;16.338;2023-02-19T12:26:21;99122.41;;;14.44;57.87
66762;BME280;53672;48.176;16.338;2023-02-19T12:31:47;99134.94;;;14.98;54.52
66762;BME280;53672;48.176;16.338;2023-02-19T12:37:07;99123.84;;;15.61;51.14
66762;BME280;53672;48.176;16.338;2023-02-19T12:42:25;99128.38;;;15.75;49.92
66762;BME280;53672;48.176;16.338;2023-02-19T12:47:32;99120.97;;;15.58;49.47
66762;BME280;53672;48.176;16.338;2023-02-19T12:52:37;99108.38;;;15.79;48.61
66762;BME280;53672;48.176;16.338;2023-02-19T12:57:41;99128.72;;;15.82;48.47
66762;BME280;53672;48.176;16.338;2023-02-19T13:02:45;99114.72;;;16.14;48.36
66762;BME280;53672;48.176;16.338;2023-02-19T13:07:58;99114.03;;;16.00;48.16
66762;BME280;53672;48.176;16.338;2023-02-19T13:13:06;99109.03;;;15.76;48.29
66762;BME280;53672;48.176;16.338;2023-02-19T13:18:13;99106.97;;;15.82;47.83
66762;BME280;53672;48.176;16.338;2023-02-19T13:23:18;99109.41;;;16.00;47.35
66762;BME280;53672;48.176;16.338;2023-02-19T13:28:48;99112.03;;;16.48;47.63
66762;BME280;53672;48.176;16.338;2023-02-19T13:34:00;99117.53;;;16.57;45.32
66762;BME280;53672;48.176;16.338;2023-02-19T13:39:04;99105.88;;;16.00;46.06
66762;BME280;53672;48.176;16.338;2023-02-19T13:44:16;99105.69;;;15.17;48.67
66762;BME280;53672;48.176;16.338;2023-02-19T13:49:41;99113.69;;;14.34;51.69
66762;BME280;53672;48.176;16.338;2023-02-19T13:54:48;99119.22;;;14.01;57.36
66762;BME280;53672;48.176;16.338;2023-02-19T13:59:50;99121.84;;;13.52;59.86
66762;BME280;53672;48.176;16.338;2023-02-19T14:04:54;99123.50;;;13.20;61.66
66762;BME280;53672;48.176;16.338;2023-02-19T14:09:55;99147.25;;;13.05;60.65
66762;BME280;53672;48.176;16.338;2023-02-19T14:14:57;99148.50;;;12.80;61.80
66762;BME280;53672;48.176;16.338;2023-02-19T14:20:39;99159.38;;;12.56;61.68
66762;BME280;53672;48.176;16.338;2023-02-19T14:25:51;99189.50;;;12.50;61.91
66762;BME280;53672;48.176;16.338;2023-02-19T14:30:55;99191.31;;;12.36;62.89
66762;BME280;53672;48.176;16.338;2023-02-19T14:36:00;99204.66;;;12.03;66.19
66762;BME280;53672;48.176;16.338;2023-02-19T14:41:03;99220.00;;;11.84;67.62
66762;BME280;53672;48.176;16.338;2023-02-19T14:46:14;99235.19;;;11.46;71.45
66762;BME280;53672;48.176;16.338;2023-02-19T14:51:23;99230.72;;;11.32;73.02
66762;BME280;53672;48.176;16.338;2023-02-19T14:56:32;99252.84;;;10.95;76.99
66762;BME280;53672;48.176;16.338;2023-02-19T15:01:36;99251.91;;;10.71;80.89
66762;BME280;53672;48.176;16.338;2023-02-19T15:06:38;99276.53;;;10.49;82.54
66762;BME280;53672;48.176;16.338;2023-02-19T15:11:41;99288.75;;;10.26;85.42
66762;BME280;53672;48.176;16.338;2023-02-19T15:16:44;99304.41;;;9.99;90.80
66762;BME280;53672;48.176;16.338;2023-02-19T15:21:46;99313.31;;;9.64;95.63
66762;BME280;53672;48.176;16.338;2023-02-19T15:26:49;99324.59;;;9.41;99.62
66762;BME280;53672;48.176;16.338;2023-02-19T15:31:53;99356.88;;;9.31;100.00
66762;BME280;53672;48.176;16.338;2023-02-19T15:36:57;99341.47;;;9.11;98.39
66762;BME280;53672;48.176;16.338;2023-02-19T15:41:59;99344.91;;;8.86;99.75
66762;BME280;53672;48.176;16.338;2023-02-19T15:47:10;99356.16;;;8.73;100.00
66762;BME280;53672;48.176;16.338;2023-02-19T15:52:19;99376.00;;;8.62;100.00
66762;BME280;53672;48.176;16.338;2023-02-19T15:57:24;99374.13;;;8.62;100.00
66762;BME280;53672;48.176;16.338;2023-02-19T16:02:29;99406.06;;;8.64;100.00
66762;BME280;53672;48.176;16.338;2023-02-19T16:07:30;99399.03;;;8.53;100.00
66762;BME280;53672;48.176;16.338;2023-02-19T16:12:31;99416.72;;;8.44;100.00
66762;BME280;53672;48.176;16.338;2023-02-19T16:17:33;99436.50;;;8.33;100.00
66762;BME280;53672;48.176;16.338;2023-02-19T16:22:41;99458.44;;;8.25;100.00
66762;BME280;53672;48.176;16.338;2023-02-19T16:27:42;99434.44;;;8.08;100.00
66762;BME280;53672;48.176;16.338;2023-02-19T16:32:48;99430.03;;;7.97;100.00
66762;BME280;53672;48.176;16.338;2023-02-19T16:38:12;99423.19;;;7.84;100.00
66762;BME280;53672;48.176;16.338;2023-02-19T16:43:30;99430.56;;;7.67;100.00
66762;BME280;53672;48.176;16.338;2023-02-19T16:48:38;99454.03;;;7.55;99.57
66762;BME280;53672;48.176;16.338;2023-02-19T16:53:40;99464.34;;;7.41;98.01
66762;BME280;53672;48.176;16.338;2023-02-19T16:58:41;99473.22;;;7.42;95.72
66762;BME280;53672;48.176;16.338;2023-02-19T17:03:46;99482.63;;;7.44;95.83
66762;BME280;53672;48.176;16.338;2023-02-19T17:08:47;99508.06;;;7.42;96.86
66762;BME280;53672;48.176;16.338;2023-02-19T17:13:48;99519.84;;;7.41;97.53
66762;BME280;53672;48.176;16.338;2023-02-19T17:18:50;99533.84;;;7.43;99.44
66762;BME280;53672;48.176;16.338;2023-02-19T17:23:51;99554.72;;;7.41;100.00
66762;BME280;53672;48.176;16.338;2023-02-19T17:28:55;99570.75;;;7.36;100.00
66762;BME280;53672;48.176;16.338;2023-02-19T17:33:58;99585.53;;;7.38;100.00
66762;BME280;53672;48.176;16.338;2023-02-19T17:39:00;99607.47;;;7.35;100.00
66762;BME280;53672;48.176;16.338;2023-02-19T17:44:02;99618.88;;;7.26;100.00
66762;BME280;53672;48.176;16.338;2023-02-19T17:49:05;99621.56;;;7.26;100.00
66762;BME280;53672;48.176;16.338;2023-02-19T17:54:06;99638.28;;;7.16;100.00
66762;BME280;53672;48.176;16.338;2023-02-19T17:59:07;99643.91;;;7.14;100.00
66762;BME280;53672;48.176;16.338;2023-02-19T18:04:11;99644.13;;;7.13;100.00
66762;BME280;53672;48.176;16.338;2023-02-19T18:09:13;99649.75;;;7.11;100.00
66762;BME280;53672;48.176;16.338;2023-02-19T18:14:14;99668.41;;;7.06;100.00
66762;BME280;53672;48.176;16.338;2023-02-19T18:19:17;99675.41;;;7.07;100.00
66762;BME280;53672;48.176;16.338;2023-02-19T18:24:18;99690.44;;;7.08;100.00
66762;BME280;53672;48.176;16.338;2023-02-19T18:29:19;99684.50;;;7.06;100.00
66762;BME280;53672;48.176;16.338;2023-02-19T18:34:22;99689.13;;;7.11;100.00
66762;BME280;53672;48.176;16.338;2023-02-19T18:39:23;99686.19;;;7.12;100.00
66762;BME280;53672;48.176;16.338;2023-02-19T18:44:24;99695.31;;;7.11;100.00
66762;BME280;53672;48.176;16.338;2023-02-19T18:49:27;99697.50;;;7.14;100.00
66762;BME280;53672;48.176;16.338;2023-02-19T18:54:29;99715.22;;;7.16;100.00
66762;BME280;53672;48.176;16.338;2023-02-19T18:59:30;99711.47;;;7.17;100.00
66762;BME280;53672;48.176;16.338;2023-02-19T19:04:33;99728.38;;;7.17;100.00
66762;BME280;53672;48.176;16.338;2023-02-19T19:09:35;99727.88;;;7.20;100.00
66762;BME280;53672;48.176;16.338;2023-02-19T19:14:36;99732.41;;;7.20;100.00
66762;BME280;53672;48.176;16.338;2023-02-19T19:19:39;99739.41;;;7.21;100.00
66762;BME280;53672;48.176;16.338;2023-02-19T19:24:43;99749.97;;;7.27;100.00
66762;BME280;53672;48.176;16.338;2023-02-19T19:29:44;99749.97;;;7.27;100.00
66762;BME280;53672;48.176;16.338;2023-02-19T19:34:50;99753.47;;;7.28;100.00
66762;BME280;53672;48.176;16.338;2023-02-19T19:39:51;99771.41;;;7.27;100.00
66762;BME280;53672;48.176;16.338;2023-02-19T19:44:52;99775.41;;;7.25;100.00
66762;BME280;53672;48.176;16.338;2023-02-19T19:49:55;99781.91;;;7.29;100.00
66762;BME280;53672;48.176;16.338;2023-02-19T19:54:56;99790.28;;;7.32;100.00
66762;BME280;53672;48.176;16.338;2023-02-19T19:59:57;99801.34;;;7.36;100.00
66762;BME280;53672;48.176;16.338;2023-02-19T20:05:00;99806.72;;;7.36;100.00
66762;BME280;53672;48.176;16.338;2023-02-19T20:10:01;99810.22;;;7.36;100.00
66762;BME280;53672;48.176;16.338;2023-02-19T20:15:03;99813.44;;;7.38;100.00
66762;BME280;53672;48.176;16.338;2023-02-19T20:20:07;99821.00;;;7.41;100.00
66762;BME280;53672;48.176;16.338;2023-02-19T20:25:10;99821.56;;;7.43;100.00
66762;BME280;53672;48.176;16.338;2023-02-19T20:30:14;99827.25;;;7.47;99.89
66762;BME280;53672;48.176;16.338;2023-02-19T20:35:18;99809.63;;;7.51;100.00
66762;BME280;53672;48.176;16.338;2023-02-19T20:40:19;99814.00;;;7.57;99.94
66762;BME280;53672;48.176;16.338;2023-02-19T20:45:20;99826.16;;;7.59;99.67
66762;BME280;53672;48.176;16.338;2023-02-19T20:50:23;99840.34;;;7.43;96.55
66762;BME280;53672;48.176;16.338;2023-02-19T20:55:25;99838.28;;;7.34;96.05
66762;BME280;53672;48.176;16.338;2023-02-19T21:00:26;99861.09;;;7.20;97.91
66762;BME280;53672;48.176;16.338;2023-02-19T21:05:29;99879.53;;;6.88;99.94
66762;BME280;53672;48.176;16.338;2023-02-19T21:10:30;99889.91;;;6.84;100.00
66762;BME280;53672;48.176;16.338;2023-02-19T21:15:32;99882.03;;;6.66;100.00
66762;BME280;53672;48.176;16.338;2023-02-19T21:20:36;99887.53;;;6.36;100.00
66762;BME280;53672;48.176;16.338;2023-02-19T21:25:37;99887.66;;;6.18;100.00
66762;BME280;53672;48.176;16.338;2023-02-19T21:30:38;99901.50;;;6.03;100.00
66762;BME280;53672;48.176;16.338;2023-02-19T21:35:40;99914.78;;;5.98;100.00
66762;BME280;53672;48.176;16.338;2023-02-19T21:40:41;99906.50;;;5.88;100.00
66762;BME280;53672;48.176;16.338;2023-02-19T21:45:41;99904.00;;;5.75;100.00
66762;BME280;53672;48.176;16.338;2023-02-19T21:50:44;99908.19;;;5.83;100.00
66762;BME280;53672;48.176;16.338;2023-02-19T21:55:45;99912.97;;;5.81;100.00
66762;BME280;53672;48.176;16.338;2023-02-19T22:00:46;99922.66;;;5.93;100.00
66762;BME280;53672;48.176;16.338;2023-02-19T22:05:48;99923.41;;;5.82;99.28
66762;BME280;53672;48.176;16.338;2023-02-19T22:10:48;99913.63;;;5.76;97.00
66762;BME280;53672;48.176;16.338;2023-02-19T22:15:49;99911.94;;;5.52;94.75
66762;BME280;53672;48.176;16.338;2023-02-19T22:20:51;99928.09;;;5.45;96.16
66762;BME280;53672;48.176;16.338;2023-02-19T22:25:51;99935.75;;;5.42;95.37
66762;BME280;53672;48.176;16.338;2023-02-19T22:30:52;99937.13;;;5.33;96.25
66762;BME280;53672;48.176;16.338;2023-02-19T22:35:54;99945.34;;;5.31;96.93
66762;BME280;53672;48.176;16.338;2023-02-19T22:40:54;99947.66;;;5.28;96.57
66762;BME280;53672;48.176;16.338;2023-02-19T22:45:55;99946.22;;;5.14;95.89
66762;BME280;53672;48.176;16.338;2023-02-19T22:50:57;99962.00;;;5.15;97.57
66762;BME280;53672;48.176;16.338;2023-02-19T22:55:57;99958.16;;;5.11;97.97
66762;BME280;53672;48.176;16.338;2023-02-19T23:00:58;99965.66;;;5.02;96.29
66762;BME280;53672;48.176;16.338;2023-02-19T23:06:03;99965.88;;;5.01;97.39
66762;BME280;53672;48.176;16.338;2023-02-19T23:11:03;99970.56;;;5.05;100.00
66762;BME280;53672;48.176;16.338;2023-02-19T23:16:04;99979.97;;;5.08;100.00
66762;BME280;53672;48.176;16.338;2023-02-19T23:21:06;99982.44;;;5.09;100.00
66762;BME280;53672;48.176;16.338;2023-02-19T23:26:07;99969.44;;;5.13;99.90
66762;BME280;53672;48.176;16.338;2023-02-19T23:31:08;99970.69;;;5.10;99.65
66762;BME280;53672;48.176;16.338;2023-02-19T23:36:10;99964.03;;;5.01;99.86
66762;BME280;53672;48.176;16.338;2023-02-19T23:41:13;99970.56;;;5.05;100.00
66762;BME280;53672;48.176;16.338;2023-02-19T23:46:15;99973.31;;;4.99;99.51
66762;BME280;53672;48.176;16.338;2023-02-19T23:51:17;99960.47;;;4.89;99.67
66762;BME280;53672;48.176;16.338;2023-02-19T23:56:21;99953.34;;;4.83;99.92
